sensor_id;sensor_type;location;lat;lon;timestamp;temperature;humidity
72114;SHT31;59989;46.220;19.888;2022-07-10T00:00:42;17.72;55.44
72114;SHT31;59989;46.220;19.888;2022-07-10T00:03:44;17.68;55.70
72114;SHT31;59989;46.220;19.888;2022-07-10T00:06:47;17.71;56.02
72114;SHT31;59989;46.220;19.888;2022-07-10T00:09:49;17.64;56.32
72114;SHT31;59989;46.220;19.888;2022-07-10T00:12:52;17.57;56.79
72114;SHT31;59989;46.220;19.888;2022-07-10T00:15:54;17.58;57.20
72114;SHT31;59989;46.220;19.888;2022-07-10T00:18:57;17.57;57.41
72114;SHT31;59989;46.220;19.888;2022-07-10T00:21:59;17.59;57.51
72114;SHT31;59989;46.220;19.888;2022-07-10T00:25:03;17.59;57.69
72114;SHT31;59989;46.220;19.888;2022-07-10T00:28:05;17.62;57.76
72114;SHT31;59989;46.220;19.888;2022-07-10T00:31:08;17.67;57.74
72114;SHT31;59989;46.220;19.888;2022-07-10T00:34:13;17.69;57.93
72114;SHT31;59989;46.220;19.888;2022-07-10T00:37:15;17.75;58.36
72114;SHT31;59989;46.220;19.888;2022-07-10T00:40:18;17.74;57.89
72114;SHT31;59989;46.220;19.888;2022-07-10T00:43:20;17.75;58.69
72114;SHT31;59989;46.220;19.888;2022-07-10T00:46:26;17.81;58.66
72114;SHT31;59989;46.220;19.888;2022-07-10T00:49:29;17.85;58.83
72114;SHT31;59989;46.220;19.888;2022-07-10T00:52:32;17.83;58.82
72114;SHT31;59989;46.220;19.888;2022-07-10T00:55:38;17.85;58.90
72114;SHT31;59989;46.220;19.888;2022-07-10T00:58:41;17.81;59.24
72114;SHT31;59989;46.220;19.888;2022-07-10T01:01:44;17.75;59.35
72114;SHT31;59989;46.220;19.888;2022-07-10T01:04:47;17.69;59.46
72114;SHT31;59989;46.220;19.888;2022-07-10T01:07:50;17.62;59.96
72114;SHT31;59989;46.220;19.888;2022-07-10T01:10:53;17.57;60.45
72114;SHT31;59989;46.220;19.888;2022-07-10T01:13:55;17.55;60.54
72114;SHT31;59989;46.220;19.888;2022-07-10T01:16:58;17.48;60.79
72114;SHT31;59989;46.220;19.888;2022-07-10T01:20:08;17.41;60.84
72114;SHT31;59989;46.220;19.888;2022-07-10T01:23:11;17.35;61.36
72114;SHT31;59989;46.220;19.888;2022-07-10T01:26:14;17.34;61.53
72114;SHT31;59989;46.220;19.888;2022-07-10T01:29:16;17.32;61.72
72114;SHT31;59989;46.220;19.888;2022-07-10T01:32:18;17.30;61.81
72114;SHT31;59989;46.220;19.888;2022-07-10T01:35:21;17.30;61.91
72114;SHT31;59989;46.220;19.888;2022-07-10T01:38:24;17.31;61.85
72114;SHT31;59989;46.220;19.888;2022-07-10T01:41:26;17.30;62.02
72114;SHT31;59989;46.220;19.888;2022-07-10T01:44:29;17.31;62.15
72114;SHT31;59989;46.220;19.888;2022-07-10T01:47:31;17.31;62.41
72114;SHT31;59989;46.220;19.888;2022-07-10T01:50:34;17.32;62.39
72114;SHT31;59989;46.220;19.888;2022-07-10T01:53:37;17.32;62.80
72114;SHT31;59989;46.220;19.888;2022-07-10T01:56:40;17.34;62.67
72114;SHT31;59989;46.220;19.888;2022-07-10T01:59:43;17.27;63.07
72114;SHT31;59989;46.220;19.888;2022-07-10T02:02:45;17.24;63.41
72114;SHT31;59989;46.220;19.888;2022-07-10T02:06:09;17.20;63.86
72114;SHT31;59989;46.220;19.888;2022-07-10T02:09:12;17.17;64.35
72114;SHT31;59989;46.220;19.888;2022-07-10T02:12:15;17.14;64.65
72114;SHT31;59989;46.220;19.888;2022-07-10T02:15:18;17.10;64.89
72114;SHT31;59989;46.220;19.888;2022-07-10T02:18:22;17.17;64.58
72114;SHT31;59989;46.220;19.888;2022-07-10T02:21:25;17.17;64.70
72114;SHT31;59989;46.220;19.888;2022-07-10T02:24:27;17.24;65.06
72114;SHT31;59989;46.220;19.888;2022-07-10T02:27:30;17.27;64.92
72114;SHT31;59989;46.220;19.888;2022-07-10T02:30:32;17.34;64.73
72114;SHT31;59989;46.220;19.888;2022-07-10T02:33:35;17.38;64.75
72114;SHT31;59989;46.220;19.888;2022-07-10T02:36:39;17.38;65.10
72114;SHT31;59989;46.220;19.888;2022-07-10T02:39:41;17.41;65.15
72114;SHT31;59989;46.220;19.888;2022-07-10T02:42:44;17.42;65.51
72114;SHT31;59989;46.220;19.888;2022-07-10T02:45:46;17.49;65.31
72114;SHT31;59989;46.220;19.888;2022-07-10T02:48:49;17.55;65.67
72114;SHT31;59989;46.220;19.888;2022-07-10T02:51:51;17.57;65.84
72114;SHT31;59989;46.220;19.888;2022-07-10T02:54:54;17.57;65.84
72114;SHT31;59989;46.220;19.888;2022-07-10T02:57:58;17.61;65.90
72114;SHT31;59989;46.220;19.888;2022-07-10T03:01:02;17.65;65.93
72114;SHT31;59989;46.220;19.888;2022-07-10T03:04:05;17.71;65.79
72114;SHT31;59989;46.220;19.888;2022-07-10T03:07:07;17.71;65.99
72114;SHT31;59989;46.220;19.888;2022-07-10T03:10:10;17.72;66.13
72114;SHT31;59989;46.220;19.888;2022-07-10T03:13:12;17.74;66.26
72114;SHT31;59989;46.220;19.888;2022-07-10T03:16:14;17.75;66.28
72114;SHT31;59989;46.220;19.888;2022-07-10T03:19:17;17.79;66.27
72114;SHT31;59989;46.220;19.888;2022-07-10T03:22:20;17.81;66.25
72114;SHT31;59989;46.220;19.888;2022-07-10T03:25:23;17.83;66.60
72114;SHT31;59989;46.220;19.888;2022-07-10T03:28:25;17.83;66.49
72114;SHT31;59989;46.220;19.888;2022-07-10T03:31:28;17.86;66.50
72114;SHT31;59989;46.220;19.888;2022-07-10T03:34:30;17.86;66.59
72114;SHT31;59989;46.220;19.888;2022-07-10T03:37:35;17.88;66.64
72114;SHT31;59989;46.220;19.888;2022-07-10T03:40:37;17.88;66.62
72114;SHT31;59989;46.220;19.888;2022-07-10T03:43:39;17.86;66.64
72114;SHT31;59989;46.220;19.888;2022-07-10T03:46:42;17.92;66.64
72114;SHT31;59989;46.220;19.888;2022-07-10T03:49:44;17.97;66.71
72114;SHT31;59989;46.220;19.888;2022-07-10T03:52:47;17.99;66.51
72114;SHT31;59989;46.220;19.888;2022-07-10T03:55:49;18.00;66.43
72114;SHT31;59989;46.220;19.888;2022-07-10T03:58:52;18.02;66.60
72114;SHT31;59989;46.220;19.888;2022-07-10T04:01:54;18.06;66.41
72114;SHT31;59989;46.220;19.888;2022-07-10T04:04:56;18.10;66.39
72114;SHT31;59989;46.220;19.888;2022-07-10T04:08:00;18.12;66.24
72114;SHT31;59989;46.220;19.888;2022-07-10T04:11:03;18.13;66.14
72114;SHT31;59989;46.220;19.888;2022-07-10T04:14:05;18.12;66.22
72114;SHT31;59989;46.220;19.888;2022-07-10T04:17:07;18.16;66.22
72114;SHT31;59989;46.220;19.888;2022-07-10T04:20:11;18.12;66.10
72114;SHT31;59989;46.220;19.888;2022-07-10T04:23:13;18.10;66.07
72114;SHT31;59989;46.220;19.888;2022-07-10T04:26:16;18.14;66.03
72114;SHT31;59989;46.220;19.888;2022-07-10T04:29:18;18.14;65.93
72114;SHT31;59989;46.220;19.888;2022-07-10T04:32:21;18.12;66.08
72114;SHT31;59989;46.220;19.888;2022-07-10T04:35:23;18.09;66.42
72114;SHT31;59989;46.220;19.888;2022-07-10T04:38:26;18.10;66.40
72114;SHT31;59989;46.220;19.888;2022-07-10T04:41:29;18.18;66.04
72114;SHT31;59989;46.220;19.888;2022-07-10T04:44:33;18.29;65.94
72114;SHT31;59989;46.220;19.888;2022-07-10T04:47:35;18.43;65.55
72114;SHT31;59989;46.220;19.888;2022-07-10T04:50:37;18.47;65.22
72114;SHT31;59989;46.220;19.888;2022-07-10T04:53:40;18.58;64.97
72114;SHT31;59989;46.220;19.888;2022-07-10T04:56:42;18.64;64.40
72114;SHT31;59989;46.220;19.888;2022-07-10T04:59:46;18.51;63.88
72114;SHT31;59989;46.220;19.888;2022-07-10T05:02:48;18.57;63.83
72114;SHT31;59989;46.220;19.888;2022-07-10T05:05:51;18.57;64.21
72114;SHT31;59989;46.220;19.888;2022-07-10T05:08:53;18.50;64.12
72114;SHT31;59989;46.220;19.888;2022-07-10T05:11:57;18.61;64.09
72114;SHT31;59989;46.220;19.888;2022-07-10T05:14:59;18.75;63.92
72114;SHT31;59989;46.220;19.888;2022-07-10T05:18:02;18.85;63.21
72114;SHT31;59989;46.220;19.888;2022-07-10T05:21:05;19.11;63.00
72114;SHT31;59989;46.220;19.888;2022-07-10T05:24:08;19.13;62.43
72114;SHT31;59989;46.220;19.888;2022-07-10T05:27:10;19.16;61.93
72114;SHT31;59989;46.220;19.888;2022-07-10T05:30:13;19.20;62.00
72114;SHT31;59989;46.220;19.888;2022-07-10T05:33:16;19.37;61.64
72114;SHT31;59989;46.220;19.888;2022-07-10T05:36:18;19.43;61.32
72114;SHT31;59989;46.220;19.888;2022-07-10T05:39:20;19.33;60.67
72114;SHT31;59989;46.220;19.888;2022-07-10T05:42:24;19.37;60.99
72114;SHT31;59989;46.220;19.888;2022-07-10T05:45:27;19.53;60.35
72114;SHT31;59989;46.220;19.888;2022-07-10T05:48:30;19.63;60.29
72114;SHT31;59989;46.220;19.888;2022-07-10T05:51:32;19.57;60.06
72114;SHT31;59989;46.220;19.888;2022-07-10T05:54:45;19.57;59.88
72114;SHT31;59989;46.220;19.888;2022-07-10T05:57:48;19.60;59.51
72114;SHT31;59989;46.220;19.888;2022-07-10T06:00:50;19.54;60.77
72114;SHT31;59989;46.220;19.888;2022-07-10T06:03:53;19.61;60.27
72114;SHT31;59989;46.220;19.888;2022-07-10T06:06:55;19.70;60.14
72114;SHT31;59989;46.220;19.888;2022-07-10T06:09:58;19.78;60.03
72114;SHT31;59989;46.220;19.888;2022-07-10T06:13:00;19.84;59.46
72114;SHT31;59989;46.220;19.888;2022-07-10T06:16:03;19.94;58.38
72114;SHT31;59989;46.220;19.888;2022-07-10T06:19:07;20.15;57.67
72114;SHT31;59989;46.220;19.888;2022-07-10T06:22:09;20.12;58.39
72114;SHT31;59989;46.220;19.888;2022-07-10T06:25:30;20.33;56.96
72114;SHT31;59989;46.220;19.888;2022-07-10T06:28:35;20.50;55.78
72114;SHT31;59989;46.220;19.888;2022-07-10T06:31:38;20.76;55.98
72114;SHT31;59989;46.220;19.888;2022-07-10T06:34:41;20.88;55.18
72114;SHT31;59989;46.220;19.888;2022-07-10T06:37:43;20.86;55.46
72114;SHT31;59989;46.220;19.888;2022-07-10T06:40:47;21.27;54.90
72114;SHT31;59989;46.220;19.888;2022-07-10T06:43:49;21.45;53.68
72114;SHT31;59989;46.220;19.888;2022-07-10T06:46:52;21.30;53.19
72114;SHT31;59989;46.220;19.888;2022-07-10T06:50:13;21.30;53.66
72114;SHT31;59989;46.220;19.888;2022-07-10T06:53:15;21.24;53.94
72114;SHT31;59989;46.220;19.888;2022-07-10T06:56:18;21.17;54.31
72114;SHT31;59989;46.220;19.888;2022-07-10T06:59:21;21.03;54.87
72114;SHT31;59989;46.220;19.888;2022-07-10T07:02:24;21.06;54.88
72114;SHT31;59989;46.220;19.888;2022-07-10T07:05:26;21.04;54.51
72114;SHT31;59989;46.220;19.888;2022-07-10T07:08:29;21.08;54.44
72114;SHT31;59989;46.220;19.888;2022-07-10T07:11:32;21.04;54.10
72114;SHT31;59989;46.220;19.888;2022-07-10T07:14:35;21.41;53.41
72114;SHT31;59989;46.220;19.888;2022-07-10T07:17:45;22.12;51.87
72114;SHT31;59989;46.220;19.888;2022-07-10T07:21:10;22.55;50.70
72114;SHT31;59989;46.220;19.888;2022-07-10T07:24:31;22.78;49.91
72114;SHT31;59989;46.220;19.888;2022-07-10T07:27:34;23.19;48.72
72114;SHT31;59989;46.220;19.888;2022-07-10T07:30:38;23.20;48.02
72114;SHT31;59989;46.220;19.888;2022-07-10T07:33:40;23.63;47.50
72114;SHT31;59989;46.220;19.888;2022-07-10T07:36:43;23.60;44.70
72114;SHT31;59989;46.220;19.888;2022-07-10T07:39:45;23.56;44.61
72114;SHT31;59989;46.220;19.888;2022-07-10T07:42:50;23.64;43.75
72114;SHT31;59989;46.220;19.888;2022-07-10T07:45:53;23.56;44.61
72114;SHT31;59989;46.220;19.888;2022-07-10T07:48:56;23.53;43.45
72114;SHT31;59989;46.220;19.888;2022-07-10T07:51:59;23.94;43.44
72114;SHT31;59989;46.220;19.888;2022-07-10T07:55:02;24.06;44.04
72114;SHT31;59989;46.220;19.888;2022-07-10T07:58:05;24.32;44.50
72114;SHT31;59989;46.220;19.888;2022-07-10T08:01:07;24.14;42.82
72114;SHT31;59989;46.220;19.888;2022-07-10T08:04:10;23.79;43.93
72114;SHT31;59989;46.220;19.888;2022-07-10T08:07:12;24.14;44.26
72114;SHT31;59989;46.220;19.888;2022-07-10T08:10:17;23.94;42.35
72114;SHT31;59989;46.220;19.888;2022-07-10T08:13:22;24.39;41.92
72114;SHT31;59989;46.220;19.888;2022-07-10T08:16:24;24.60;41.63
72114;SHT31;59989;46.220;19.888;2022-07-10T08:19:27;24.40;41.91
72114;SHT31;59989;46.220;19.888;2022-07-10T08:22:30;24.77;41.56
72114;SHT31;59989;46.220;19.888;2022-07-10T08:25:32;24.72;40.98
72114;SHT31;59989;46.220;19.888;2022-07-10T08:28:35;24.73;41.93
72114;SHT31;59989;46.220;19.888;2022-07-10T08:31:38;25.04;43.30
72114;SHT31;59989;46.220;19.888;2022-07-10T08:34:42;25.35;40.79
72114;SHT31;59989;46.220;19.888;2022-07-10T08:37:45;25.66;40.32
72114;SHT31;59989;46.220;19.888;2022-07-10T08:40:48;25.65;41.14
72114;SHT31;59989;46.220;19.888;2022-07-10T08:43:52;25.52;40.30
72114;SHT31;59989;46.220;19.888;2022-07-10T08:46:55;25.15;40.06
72114;SHT31;59989;46.220;19.888;2022-07-10T08:49:58;25.22;40.46
72114;SHT31;59989;46.220;19.888;2022-07-10T08:53:08;25.51;39.74
72114;SHT31;59989;46.220;19.888;2022-07-10T08:56:10;25.82;39.16
72114;SHT31;59989;46.220;19.888;2022-07-10T08:59:14;25.75;39.14
72114;SHT31;59989;46.220;19.888;2022-07-10T09:02:17;24.77;40.27
72114;SHT31;59989;46.220;19.888;2022-07-10T09:05:19;25.27;40.06
72114;SHT31;59989;46.220;19.888;2022-07-10T09:08:25;25.04;40.21
72114;SHT31;59989;46.220;19.888;2022-07-10T09:11:30;25.51;39.04
72114;SHT31;59989;46.220;19.888;2022-07-10T09:14:33;26.04;35.06
72114;SHT31;59989;46.220;19.888;2022-07-10T09:17:50;26.72;32.65
72114;SHT31;59989;46.220;19.888;2022-07-10T09:20:53;26.81;32.23
72114;SHT31;59989;46.220;19.888;2022-07-10T09:23:58;26.28;36.03
72114;SHT31;59989;46.220;19.888;2022-07-10T09:27:02;26.61;36.39
72114;SHT31;59989;46.220;19.888;2022-07-10T09:30:08;26.91;35.12
72114;SHT31;59989;46.220;19.888;2022-07-10T09:33:21;27.22;36.29
72114;SHT31;59989;46.220;19.888;2022-07-10T09:36:29;26.78;35.33
72114;SHT31;59989;46.220;19.888;2022-07-10T09:40:10;25.65;37.82
72114;SHT31;59989;46.220;19.888;2022-07-10T09:43:11;25.99;39.00
72114;SHT31;59989;46.220;19.888;2022-07-10T09:46:19;26.79;36.48
72114;SHT31;59989;46.220;19.888;2022-07-10T09:49:28;26.79;34.97
72114;SHT31;59989;46.220;19.888;2022-07-10T09:52:33;27.23;33.18
72114;SHT31;59989;46.220;19.888;2022-07-10T09:55:36;27.85;30.31
72114;SHT31;59989;46.220;19.888;2022-07-10T09:58:39;27.07;34.41
72114;SHT31;59989;46.220;19.888;2022-07-10T10:01:50;25.96;35.50
72114;SHT31;59989;46.220;19.888;2022-07-10T10:04:53;26.88;33.23
72114;SHT31;59989;46.220;19.888;2022-07-10T10:07:56;27.58;32.72
72114;SHT31;59989;46.220;19.888;2022-07-10T10:11:01;28.57;33.42
72114;SHT31;59989;46.220;19.888;2022-07-10T10:14:07;27.26;36.09
72114;SHT31;59989;46.220;19.888;2022-07-10T10:17:10;26.06;37.08
72114;SHT31;59989;46.220;19.888;2022-07-10T10:20:14;26.44;37.61
72114;SHT31;59989;46.220;19.888;2022-07-10T10:23:36;25.25;39.08
72114;SHT31;59989;46.220;19.888;2022-07-10T10:26:38;24.86;40.01
72114;SHT31;59989;46.220;19.888;2022-07-10T10:29:42;26.00;37.12
72114;SHT31;59989;46.220;19.888;2022-07-10T10:32:45;27.30;35.76
72114;SHT31;59989;46.220;19.888;2022-07-10T10:35:47;28.11;36.12
72114;SHT31;59989;46.220;19.888;2022-07-10T10:41:54;27.63;35.08
72114;SHT31;59989;46.220;19.888;2022-07-10T10:48:28;29.58;32.39
72114;SHT31;59989;46.220;19.888;2022-07-10T10:51:59;29.36;32.89
72114;SHT31;59989;46.220;19.888;2022-07-10T10:55:03;28.29;35.74
72114;SHT31;59989;46.220;19.888;2022-07-10T10:58:15;27.88;34.67
72114;SHT31;59989;46.220;19.888;2022-07-10T11:04:22;28.73;32.82
72114;SHT31;59989;46.220;19.888;2022-07-10T11:08:00;29.21;32.82
72114;SHT31;59989;46.220;19.888;2022-07-10T11:11:43;29.44;32.38
72114;SHT31;59989;46.220;19.888;2022-07-10T11:14:46;29.67;31.19
72114;SHT31;59989;46.220;19.888;2022-07-10T11:17:50;29.86;29.14
72114;SHT31;59989;46.220;19.888;2022-07-10T11:20:53;29.45;28.89
72114;SHT31;59989;46.220;19.888;2022-07-10T11:24:13;30.14;29.08
72114;SHT31;59989;46.220;19.888;2022-07-10T11:30:51;30.23;28.73
72114;SHT31;59989;46.220;19.888;2022-07-10T11:33:55;30.17;28.01
72114;SHT31;59989;46.220;19.888;2022-07-10T11:36:57;31.22;27.47
72114;SHT31;59989;46.220;19.888;2022-07-10T11:40:12;30.14;27.85
72114;SHT31;59989;46.220;19.888;2022-07-10T11:43:15;29.22;28.35
72114;SHT31;59989;46.220;19.888;2022-07-10T11:46:20;30.18;28.18
72114;SHT31;59989;46.220;19.888;2022-07-10T11:49:24;31.47;27.12
72114;SHT31;59989;46.220;19.888;2022-07-10T11:52:35;28.66;29.53
72114;SHT31;59989;46.220;19.888;2022-07-10T11:55:38;27.20;32.14
72114;SHT31;59989;46.220;19.888;2022-07-10T11:58:43;28.94;31.01
72114;SHT31;59989;46.220;19.888;2022-07-10T12:01:50;29.59;29.15
72114;SHT31;59989;46.220;19.888;2022-07-10T12:04:53;28.19;31.13
72114;SHT31;59989;46.220;19.888;2022-07-10T12:07:55;27.51;32.32
72114;SHT31;59989;46.220;19.888;2022-07-10T12:10:58;30.18;29.18
72114;SHT31;59989;46.220;19.888;2022-07-10T12:14:17;31.04;28.45
72114;SHT31;59989;46.220;19.888;2022-07-10T12:17:20;30.99;28.64
72114;SHT31;59989;46.220;19.888;2022-07-10T12:20:23;29.49;30.07
72114;SHT31;59989;46.220;19.888;2022-07-10T12:23:25;27.58;32.16
72114;SHT31;59989;46.220;19.888;2022-07-10T12:26:35;26.52;34.58
72114;SHT31;59989;46.220;19.888;2022-07-10T12:29:39;28.36;31.69
72114;SHT31;59989;46.220;19.888;2022-07-10T12:32:41;29.08;28.65
72114;SHT31;59989;46.220;19.888;2022-07-10T12:35:54;26.99;31.73
72114;SHT31;59989;46.220;19.888;2022-07-10T12:38:58;26.68;32.78
72114;SHT31;59989;46.220;19.888;2022-07-10T12:42:02;26.65;30.75
72114;SHT31;59989;46.220;19.888;2022-07-10T12:45:12;26.81;30.33
72114;SHT31;59989;46.220;19.888;2022-07-10T12:48:22;26.96;30.83
72114;SHT31;59989;46.220;19.888;2022-07-10T12:51:30;28.97;27.92
72114;SHT31;59989;46.220;19.888;2022-07-10T12:55:34;30.45;26.87
72114;SHT31;59989;46.220;19.888;2022-07-10T12:58:36;28.63;29.91
72114;SHT31;59989;46.220;19.888;2022-07-10T13:01:43;29.90;29.29
72114;SHT31;59989;46.220;19.888;2022-07-10T13:04:53;32.08;27.01
72114;SHT31;59989;46.220;19.888;2022-07-10T13:08:12;33.10;25.97
72114;SHT31;59989;46.220;19.888;2022-07-10T13:11:17;33.06;26.15
72114;SHT31;59989;46.220;19.888;2022-07-10T13:14:20;32.86;25.12
72114;SHT31;59989;46.220;19.888;2022-07-10T13:17:23;32.77;25.42
72114;SHT31;59989;46.220;19.888;2022-07-10T13:20:27;32.49;24.83
72114;SHT31;59989;46.220;19.888;2022-07-10T13:23:29;33.22;24.59
72114;SHT31;59989;46.220;19.888;2022-07-10T13:26:32;33.51;23.88
72114;SHT31;59989;46.220;19.888;2022-07-10T13:29:35;29.49;30.74
72114;SHT31;59989;46.220;19.888;2022-07-10T13:32:37;28.08;33.58
72114;SHT31;59989;46.220;19.888;2022-07-10T13:35:40;27.24;34.19
72114;SHT31;59989;46.220;19.888;2022-07-10T13:38:44;27.03;34.80
72114;SHT31;59989;46.220;19.888;2022-07-10T13:41:46;29.21;32.39
72114;SHT31;59989;46.220;19.888;2022-07-10T13:44:49;29.21;32.73
72114;SHT31;59989;46.220;19.888;2022-07-10T13:47:51;27.70;34.99
72114;SHT31;59989;46.220;19.888;2022-07-10T13:50:57;29.10;33.42
72114;SHT31;59989;46.220;19.888;2022-07-10T13:54:02;26.81;37.54
72114;SHT31;59989;46.220;19.888;2022-07-10T13:57:04;30.06;32.78
72114;SHT31;59989;46.220;19.888;2022-07-10T14:00:08;30.10;32.40
72114;SHT31;59989;46.220;19.888;2022-07-10T14:03:13;27.17;36.52
72114;SHT31;59989;46.220;19.888;2022-07-10T14:06:16;26.85;37.62
72114;SHT31;59989;46.220;19.888;2022-07-10T14:09:19;27.95;35.77
72114;SHT31;59989;46.220;19.888;2022-07-10T14:12:21;27.00;37.74
72114;SHT31;59989;46.220;19.888;2022-07-10T14:15:24;26.89;37.48
72114;SHT31;59989;46.220;19.888;2022-07-10T14:18:26;26.54;38.37
72114;SHT31;59989;46.220;19.888;2022-07-10T14:21:41;26.33;37.42
72114;SHT31;59989;46.220;19.888;2022-07-10T14:24:43;26.10;38.60
72114;SHT31;59989;46.220;19.888;2022-07-10T14:27:46;25.93;38.32
72114;SHT31;59989;46.220;19.888;2022-07-10T14:30:49;26.24;36.47
72114;SHT31;59989;46.220;19.888;2022-07-10T14:33:53;26.13;35.55
72114;SHT31;59989;46.220;19.888;2022-07-10T14:36:55;26.41;33.72
72114;SHT31;59989;46.220;19.888;2022-07-10T14:40:03;29.03;30.31
72114;SHT31;59989;46.220;19.888;2022-07-10T14:43:05;30.60;28.73
72114;SHT31;59989;46.220;19.888;2022-07-10T14:46:08;29.49;29.32
72114;SHT31;59989;46.220;19.888;2022-07-10T14:49:12;30.24;28.63
72114;SHT31;59989;46.220;19.888;2022-07-10T14:52:15;30.58;26.46
72114;SHT31;59989;46.220;19.888;2022-07-10T14:55:20;30.13;27.16
72114;SHT31;59989;46.220;19.888;2022-07-10T14:58:22;30.88;26.20
72114;SHT31;59989;46.220;19.888;2022-07-10T15:01:25;29.00;28.00
72114;SHT31;59989;46.220;19.888;2022-07-10T15:04:27;26.78;30.41
72114;SHT31;59989;46.220;19.888;2022-07-10T15:07:30;26.03;31.37
72114;SHT31;59989;46.220;19.888;2022-07-10T15:10:33;25.90;31.40
72114;SHT31;59989;46.220;19.888;2022-07-10T15:13:35;26.43;31.18
72114;SHT31;59989;46.220;19.888;2022-07-10T15:16:38;27.85;29.33
72114;SHT31;59989;46.220;19.888;2022-07-10T15:19:40;27.94;28.91
72114;SHT31;59989;46.220;19.888;2022-07-10T15:22:43;27.98;29.05
72114;SHT31;59989;46.220;19.888;2022-07-10T15:25:45;28.80;28.08
72114;SHT31;59989;46.220;19.888;2022-07-10T15:28:48;29.31;27.57
72114;SHT31;59989;46.220;19.888;2022-07-10T15:31:51;29.97;27.20
72114;SHT31;59989;46.220;19.888;2022-07-10T15:35:00;31.17;24.95
72114;SHT31;59989;46.220;19.888;2022-07-10T15:38:03;29.44;25.92
72114;SHT31;59989;46.220;19.888;2022-07-10T15:41:06;28.48;27.36
72114;SHT31;59989;46.220;19.888;2022-07-10T15:44:09;30.62;24.81
72114;SHT31;59989;46.220;19.888;2022-07-10T15:47:11;30.86;24.76
72114;SHT31;59989;46.220;19.888;2022-07-10T15:50:14;30.23;25.61
72114;SHT31;59989;46.220;19.888;2022-07-10T15:53:17;29.69;25.73
72114;SHT31;59989;46.220;19.888;2022-07-10T15:56:19;28.46;28.07
72114;SHT31;59989;46.220;19.888;2022-07-10T15:59:22;28.23;28.24
72114;SHT31;59989;46.220;19.888;2022-07-10T16:02:27;27.85;28.04
72114;SHT31;59989;46.220;19.888;2022-07-10T16:05:30;26.57;30.29
72114;SHT31;59989;46.220;19.888;2022-07-10T16:08:32;27.54;29.75
72114;SHT31;59989;46.220;19.888;2022-07-10T16:11:35;26.07;32.56
72114;SHT31;59989;46.220;19.888;2022-07-10T16:14:37;27.95;30.12
72114;SHT31;59989;46.220;19.888;2022-07-10T16:17:40;28.48;29.32
72114;SHT31;59989;46.220;19.888;2022-07-10T16:20:43;28.22;30.34
72114;SHT31;59989;46.220;19.888;2022-07-10T16:23:45;27.85;30.18
72114;SHT31;59989;46.220;19.888;2022-07-10T16:26:48;28.32;28.39
72114;SHT31;59989;46.220;19.888;2022-07-10T16:29:50;27.97;27.66
72114;SHT31;59989;46.220;19.888;2022-07-10T16:32:53;28.90;26.63
72114;SHT31;59989;46.220;19.888;2022-07-10T16:36:01;29.34;26.21
72114;SHT31;59989;46.220;19.888;2022-07-10T16:39:04;29.14;26.51
72114;SHT31;59989;46.220;19.888;2022-07-10T16:42:07;29.01;26.38
72114;SHT31;59989;46.220;19.888;2022-07-10T16:45:10;28.57;26.62
72114;SHT31;59989;46.220;19.888;2022-07-10T16:48:13;28.67;26.92
72114;SHT31;59989;46.220;19.888;2022-07-10T16:51:16;28.67;27.44
72114;SHT31;59989;46.220;19.888;2022-07-10T16:54:25;28.74;27.63
72114;SHT31;59989;46.220;19.888;2022-07-10T16:57:28;28.31;28.24
72114;SHT31;59989;46.220;19.888;2022-07-10T17:00:31;27.44;29.20
72114;SHT31;59989;46.220;19.888;2022-07-10T17:03:33;27.17;29.60
72114;SHT31;59989;46.220;19.888;2022-07-10T17:06:36;25.85;31.34
72114;SHT31;59989;46.220;19.888;2022-07-10T17:09:38;25.01;32.81
72114;SHT31;59989;46.220;19.888;2022-07-10T17:12:41;24.02;34.70
72114;SHT31;59989;46.220;19.888;2022-07-10T17:15:44;23.67;35.49
72114;SHT31;59989;46.220;19.888;2022-07-10T17:18:47;23.51;36.18
72114;SHT31;59989;46.220;19.888;2022-07-10T17:21:49;23.36;35.25
72114;SHT31;59989;46.220;19.888;2022-07-10T17:25:02;23.22;35.01
72114;SHT31;59989;46.220;19.888;2022-07-10T17:28:05;23.18;35.04
72114;SHT31;59989;46.220;19.888;2022-07-10T17:31:07;23.06;35.20
72114;SHT31;59989;46.220;19.888;2022-07-10T17:34:10;22.96;35.74
72114;SHT31;59989;46.220;19.888;2022-07-10T17:37:12;22.92;36.38
72114;SHT31;59989;46.220;19.888;2022-07-10T17:40:15;22.76;36.57
72114;SHT31;59989;46.220;19.888;2022-07-10T17:43:17;22.67;36.58
72114;SHT31;59989;46.220;19.888;2022-07-10T17:46:20;22.57;36.77
72114;SHT31;59989;46.220;19.888;2022-07-10T17:49:23;22.50;36.64
72114;SHT31;59989;46.220;19.888;2022-07-10T17:52:27;22.43;36.24
72114;SHT31;59989;46.220;19.888;2022-07-10T17:55:30;22.33;36.19
72114;SHT31;59989;46.220;19.888;2022-07-10T17:58:32;22.23;36.40
72114;SHT31;59989;46.220;19.888;2022-07-10T18:01:35;22.10;35.82
72114;SHT31;59989;46.220;19.888;2022-07-10T18:04:38;22.06;36.13
72114;SHT31;59989;46.220;19.888;2022-07-10T18:07:40;21.90;36.25
72114;SHT31;59989;46.220;19.888;2022-07-10T18:10:43;21.79;36.25
72114;SHT31;59989;46.220;19.888;2022-07-10T18:13:46;21.72;36.21
72114;SHT31;59989;46.220;19.888;2022-07-10T18:16:49;21.62;35.86
72114;SHT31;59989;46.220;19.888;2022-07-10T18:19:52;21.55;35.57
72114;SHT31;59989;46.220;19.888;2022-07-10T18:22:55;21.48;35.72
72114;SHT31;59989;46.220;19.888;2022-07-10T18:25:57;21.34;36.18
72114;SHT31;59989;46.220;19.888;2022-07-10T18:29:00;21.17;36.85
72114;SHT31;59989;46.220;19.888;2022-07-10T18:32:02;21.01;37.31
72114;SHT31;59989;46.220;19.888;2022-07-10T18:35:05;20.97;37.05
72114;SHT31;59989;46.220;19.888;2022-07-10T18:38:08;20.91;37.20
72114;SHT31;59989;46.220;19.888;2022-07-10T18:41:10;20.79;37.50
72114;SHT31;59989;46.220;19.888;2022-07-10T18:44:13;20.72;37.43
72114;SHT31;59989;46.220;19.888;2022-07-10T18:47:16;20.63;37.47
72114;SHT31;59989;46.220;19.888;2022-07-10T18:50:18;20.53;37.98
72114;SHT31;59989;46.220;19.888;2022-07-10T18:53:21;20.42;37.78
72114;SHT31;59989;46.220;19.888;2022-07-10T18:56:23;20.30;37.83
72114;SHT31;59989;46.220;19.888;2022-07-10T18:59:26;20.26;37.60
72114;SHT31;59989;46.220;19.888;2022-07-10T19:02:28;20.21;37.89
72114;SHT31;59989;46.220;19.888;2022-07-10T19:05:33;20.19;36.95
72114;SHT31;59989;46.220;19.888;2022-07-10T19:08:36;20.19;37.14
72114;SHT31;59989;46.220;19.888;2022-07-10T19:11:38;20.07;37.69
72114;SHT31;59989;46.220;19.888;2022-07-10T19:14:41;19.90;38.14
72114;SHT31;59989;46.220;19.888;2022-07-10T19:17:43;19.85;37.73